Time;durP1;ratioP1;P1;durP2;ratioP2;P2;SDS_P1;SDS_P2;PMS_P1;PMS_P2;Temp;Humidity;BMP_temperature;BMP_pressure;BME280_temperature;BME280_humidity;BME280_pressure;Samples;Min_cycle;Max_cycle;Signal;HPM_P1;HPM_P2
2022/10/05 00:00:16;;;;;;;0.10;0.10;;;13.50;99.90;;;;;;5080224;28;20467;-84
2022/10/05 00:02:42;;;;;;;0.10;0.10;;;13.50;99.90;;;;;;5075168;28;20436;-86
2022/10/05 00:05:29;;;;;;;0.10;0.10;;;13.50;99.90;;;;;;5084572;28;20987;-83
2022/10/05 00:08:13;;;;;;;0.10;0.10;;;13.40;99.90;;;;;;5079739;28;20449;-85
2022/10/05 00:10:40;;;;;;;0.10;0.10;;;13.40;99.90;;;;;;5084432;28;20427;-84
2022/10/05 00:13:20;;;;;;;0.10;0.10;;;13.50;99.90;;;;;;5086720;28;20461;-85
2022/10/05 00:15:47;;;;;;;0.10;0.10;;;13.50;99.90;;;;;;5079266;28;20537;-85
2022/10/05 00:18:18;;;;;;;0.10;0.10;;;13.50;99.90;;;;;;5077430;28;20802;-85
2022/10/05 00:20:45;;;;;;;0.03;0.03;;;13.50;99.90;;;;;;5065893;28;20937;-85
2022/10/05 00:23:17;;;;;;;0.10;0.10;;;13.50;99.90;;;;;;5082220;28;20516;-85
2022/10/05 00:25:43;;;;;;;0.03;0.03;;;13.50;99.90;;;;;;5086714;28;20898;-85
2022/10/05 00:28:16;;;;;;;0.00;0.00;;;13.50;99.90;;;;;;5076946;28;20535;-85
2022/10/05 00:30:42;;;;;;;0.10;0.10;;;13.50;99.90;;;;;;5084817;28;20200;-85
2022/10/05 00:33:07;;;;;;;0.10;0.10;;;13.50;99.90;;;;;;5089892;28;20461;-85
2022/10/05 00:35:34;;;;;;;0.07;0.07;;;13.50;99.90;;;;;;5081099;28;20177;-86
2022/10/05 00:38:00;;;;;;;0.10;0.10;;;13.50;99.90;;;;;;5065745;28;20289;-85
2022/10/05 00:40:51;;;;;;;0.10;0.10;;;13.50;99.90;;;;;;5054441;28;21082;-84
2022/10/05 00:43:55;;;;;;;0.10;0.10;;;13.60;99.90;;;;;;5053463;28;20534;-85
2022/10/05 00:46:42;;;;;;;0.10;0.10;;;13.60;99.90;;;;;;5063232;28;20475;-84
2022/10/05 00:49:43;;;;;;;0.10;0.10;;;13.60;99.90;;;;;;5060180;28;20424;-86
2022/10/05 00:52:32;;;;;;;0.10;0.10;;;13.60;99.90;;;;;;5055738;28;20444;-85
2022/10/05 00:55:16;;;;;;;0.10;0.10;;;13.60;99.90;;;;;;5059477;28;20491;-83
2022/10/05 00:58:16;;;;;;;0.10;0.10;;;13.60;99.90;;;;;;5060881;28;20436;-84
2022/10/05 01:01:02;;;;;;;0.10;0.10;;;13.60;99.90;;;;;;5075655;28;20488;-83
2022/10/05 01:03:36;;;;;;;0.10;0.10;;;13.60;99.90;;;;;;5065014;28;20983;-85
2022/10/05 01:06:40;;;;;;;0.10;0.10;;;13.50;99.90;;;;;;5060018;28;20451;-84
2022/10/05 01:09:21;;;;;;;0.10;0.10;;;13.50;99.90;;;;;;5066835;28;20443;-86
2022/10/05 01:11:59;;;;;;;0.10;0.10;;;13.60;99.90;;;;;;5059284;28;20443;-84
2022/10/05 01:14:52;;;;;;;0.10;0.10;;;13.50;99.90;;;;;;5069516;28;20490;-85
2022/10/05 01:17:22;;;;;;;0.10;0.10;;;13.50;99.90;;;;;;5050347;28;20859;-85
2022/10/05 01:20:10;;;;;;;0.03;0.03;;;13.50;99.90;;;;;;5060054;28;20969;-84
2022/10/05 01:22:56;;;;;;;0.10;0.10;;;13.50;99.90;;;;;;5056248;28;21024;-86
2022/10/05 01:26:03;;;;;;;0.10;0.10;;;13.50;99.90;;;;;;5063265;28;20487;-84
2022/10/05 01:28:37;;;;;;;0.10;0.10;;;13.40;99.90;;;;;;5066585;28;20456;-84
2022/10/05 01:31:25;;;;;;;0.10;0.10;;;13.50;99.90;;;;;;5064330;28;20452;-85
2022/10/05 01:34:29;;;;;;;0.10;0.10;;;13.50;99.90;;;;;;5073578;28;20445;-84
2022/10/05 01:37:07;;;;;;;0.10;0.10;;;13.50;99.90;;;;;;5058185;28;20464;-86
2022/10/05 01:39:44;;;;;;;0.10;0.10;;;13.50;99.90;;;;;;5064831;28;20998;-85
2022/10/05 01:42:23;;;;;;;0.10;0.10;;;13.50;99.90;;;;;;5053050;28;20967;-85
2022/10/05 01:45:13;;;;;;;0.10;0.10;;;13.50;99.90;;;;;;5059032;28;20939;-84
2022/10/05 01:47:46;;;;;;;0.10;0.10;;;13.40;99.90;;;;;;5066235;28;20441;-85
2022/10/05 01:50:22;;;;;;;0.10;0.10;;;13.50;99.90;;;;;;5067470;28;20448;-86
2022/10/05 01:52:58;;;;;;;0.10;0.10;;;13.40;99.90;;;;;;5061045;28;20806;-84
2022/10/05 01:55:43;;;;;;;0.10;0.10;;;13.50;99.90;;;;;;5059585;28;20431;-83
2022/10/05 01:58:21;;;;;;;0.20;0.20;;;13.40;99.90;;;;;;5077745;28;20979;-85
2022/10/05 02:00:53;;;;;;;0.10;0.10;;;13.50;99.90;;;;;;5057691;28;20505;-86
2022/10/05 02:03:26;;;;;;;0.10;0.10;;;13.40;99.90;;;;;;5058973;28;20847;-84
2022/10/05 02:05:58;;;;;;;0.10;0.10;;;13.50;99.90;;;;;;5082167;28;20452;-84
2022/10/05 02:08:35;;;;;;;0.10;0.10;;;13.50;99.90;;;;;;5064459;28;20444;-83
2022/10/05 02:11:10;;;;;;;0.10;0.10;;;13.50;99.90;;;;;;5063006;28;20467;-84
2022/10/05 02:13:56;;;;;;;0.10;0.10;;;13.50;99.90;;;;;;5061737;28;20459;-83
2022/10/05 02:16:39;;;;;;;0.10;0.10;;;13.50;99.90;;;;;;5058228;28;20805;-84
2022/10/05 02:19:17;;;;;;;0.10;0.10;;;13.40;99.90;;;;;;5056466;28;20452;-85
2022/10/05 02:21:49;;;;;;;0.10;0.10;;;13.50;99.90;;;;;;5055808;28;20790;-85
2022/10/05 02:24:21;;;;;;;0.10;0.10;;;13.50;99.90;;;;;;5059152;28;20519;-84
2022/10/05 02:26:49;;;;;;;0.10;0.10;;;13.50;99.90;;;;;;5060772;28;20527;-84
2022/10/05 02:29:18;;;;;;;0.10;0.10;;;13.50;99.90;;;;;;5059334;28;20991;-85
2022/10/05 02:31:52;;;;;;;0.10;0.10;;;13.40;99.90;;;;;;5065053;28;20436;-84
2022/10/05 02:34:39;;;;;;;0.10;0.10;;;13.50;99.90;;;;;;5060663;28;20448;-84
2022/10/05 02:37:23;;;;;;;0.10;0.10;;;13.50;99.90;;;;;;5063995;28;21223;-84
2022/10/05 02:40:18;;;;;;;0.10;0.10;;;13.50;99.90;;;;;;5069859;28;20475;-85
2022/10/05 02:43:03;;;;;;;0.10;0.10;;;13.50;99.90;;;;;;5073825;28;20446;-84
2022/10/05 02:45:34;;;;;;;0.10;0.10;;;13.50;99.90;;;;;;5083612;28;20454;-83
2022/10/05 02:48:09;;;;;;;0.10;0.10;;;13.50;99.90;;;;;;5085010;28;20438;-84
2022/10/05 02:50:43;;;;;;;0.10;0.10;;;13.50;99.90;;;;;;5087095;28;20435;-83
2022/10/05 02:53:18;;;;;;;0.10;0.10;;;13.50;99.90;;;;;;5087416;28;20532;-85
2022/10/05 02:56:17;;;;;;;0.10;0.10;;;13.50;99.90;;;;;;5066222;28;20564;-85
2022/10/05 02:59:01;;;;;;;0.10;0.10;;;13.50;99.90;;;;;;5066307;28;20496;-83
2022/10/05 03:01:31;;;;;;;0.10;0.10;;;13.50;99.90;;;;;;5074184;28;20861;-85
2022/10/05 03:04:15;;;;;;;0.10;0.10;;;13.50;99.90;;;;;;5080107;28;20443;-85
2022/10/05 03:06:51;;;;;;;0.10;0.10;;;13.40;99.90;;;;;;5075128;28;20530;-84
2022/10/05 03:09:21;;;;;;;0.07;0.07;;;13.40;99.90;;;;;;5083240;28;20920;-85
2022/10/05 03:12:17;;;;;;;0.10;0.10;;;13.40;99.90;;;;;;5089066;28;20435;-84
2022/10/05 03:14:57;;;;;;;0.10;0.10;;;13.40;99.90;;;;;;5087922;28;20447;-84
2022/10/05 03:17:27;;;;;;;0.10;0.10;;;13.50;99.90;;;;;;5086125;28;20497;-84
2022/10/05 03:20:37;;;;;;;0.10;0.10;;;13.40;99.90;;;;;;5083066;28;20468;-85
2022/10/05 03:23:05;;;;;;;0.10;0.10;;;13.40;99.90;;;;;;5020810;28;20640;-85
2022/10/05 03:25:57;;;;;;;0.10;0.10;;;13.40;99.90;;;;;;5019977;28;20853;-85
2022/10/05 03:28:31;;;;;;;0.20;0.20;;;13.40;99.90;;;;;;5056996;28;20543;-84
2022/10/05 03:31:13;;;;;;;0.10;0.10;;;13.30;99.90;;;;;;5078025;28;20438;-85
2022/10/05 03:33:43;;;;;;;0.10;0.10;;;13.30;99.90;;;;;;5079290;28;20497;-86
2022/10/05 03:36:41;;;;;;;0.10;0.10;;;13.30;99.90;;;;;;5070810;28;20754;-84
2022/10/05 03:39:35;;;;;;;0.10;0.10;;;13.30;99.90;;;;;;5087125;28;20481;-84
2022/10/05 03:42:21;;;;;;;0.10;0.10;;;13.30;99.90;;;;;;5037538;28;20449;-84
2022/10/05 03:45:02;;;;;;;0.10;0.10;;;13.30;99.90;;;;;;5044934;28;20441;-84
2022/10/05 03:47:31;;;;;;;0.10;0.10;;;13.30;99.90;;;;;;5046121;28;20445;-85
2022/10/05 03:50:08;;;;;;;0.10;0.10;;;13.30;99.90;;;;;;5035428;28;20441;-84
2022/10/05 03:52:54;;;;;;;0.10;0.10;;;13.20;99.90;;;;;;5049704;28;20447;-84
2022/10/05 03:55:34;;;;;;;0.10;0.10;;;13.30;99.90;;;;;;5044851;28;20564;-84
2022/10/05 03:58:39;;;;;;;0.10;0.10;;;13.30;99.90;;;;;;5040029;28;20455;-85
2022/10/05 04:01:11;;;;;;;0.10;0.10;;;13.30;99.90;;;;;;4993698;28;20494;-86
2022/10/05 04:03:48;;;;;;;0.10;0.10;;;13.30;99.90;;;;;;5034671;28;20437;-85
2022/10/05 04:06:32;;;;;;;0.10;0.10;;;13.30;99.90;;;;;;5045433;28;20975;-86
2022/10/05 04:09:06;;;;;;;0.10;0.10;;;13.30;99.90;;;;;;5033732;28;20449;-85
2022/10/05 04:11:37;;;;;;;0.10;0.10;;;13.30;99.90;;;;;;5076610;28;20475;-84
2022/10/05 04:14:28;;;;;;;0.10;0.10;;;13.30;99.90;;;;;;5040605;28;20570;-85
2022/10/05 04:17:12;;;;;;;0.10;0.10;;;13.30;99.90;;;;;;5041043;28;20445;-84
2022/10/05 04:19:44;;;;;;;0.10;0.10;;;13.30;99.90;;;;;;5043098;28;20989;-84
2022/10/05 04:22:21;;;;;;;0.07;0.07;;;13.40;99.90;;;;;;5036894;28;20549;-84
2022/10/05 04:25:00;;;;;;;0.10;0.10;;;13.40;99.90;;;;;;5040722;28;20429;-83
2022/10/05 04:27:45;;;;;;;0.10;0.10;;;13.40;99.90;;;;;;5041904;28;20445;-83
2022/10/05 04:30:16;;;;;;;0.10;0.10;;;13.40;99.90;;;;;;5038388;28;20483;-85
2022/10/05 04:32:45;;;;;;;0.10;0.10;;;13.40;99.90;;;;;;5038741;28;20433;-84
2022/10/05 04:35:24;;;;;;;0.10;0.10;;;13.40;99.90;;;;;;5041962;28;20490;-85
2022/10/05 04:37:55;;;;;;;0.10;0.10;;;13.40;99.90;;;;;;5041137;28;20449;-85
2022/10/05 04:40:27;;;;;;;0.10;0.10;;;13.40;99.90;;;;;;5079495;28;20509;-85
2022/10/05 04:43:14;;;;;;;0.10;0.10;;;13.40;99.90;;;;;;5086881;28;20942;-85
2022/10/05 04:46:17;;;;;;;0.10;0.10;;;13.40;99.90;;;;;;5080756;28;20478;-85
2022/10/05 04:48:54;;;;;;;0.10;0.10;;;13.40;99.90;;;;;;5088795;28;20548;-85
2022/10/05 04:52:08;;;;;;;0.10;0.10;;;13.40;99.90;;;;;;5070593;28;20796;-85
2022/10/05 04:54:57;;;;;;;0.10;0.10;;;13.40;99.90;;;;;;5001623;28;20511;-84
2022/10/05 04:57:34;;;;;;;0.20;0.20;;;13.40;99.90;;;;;;5080963;28;20440;-86
2022/10/05 05:00:22;;;;;;;0.10;0.10;;;13.30;99.90;;;;;;5087097;28;20957;-85
2022/10/05 05:03:14;;;;;;;0.10;0.10;;;13.30;99.90;;;;;;5077707;28;20515;-85
2022/10/05 05:06:05;;;;;;;0.10;0.10;;;13.30;99.90;;;;;;5075403;28;20431;-87
2022/10/05 05:09:12;;;;;;;0.10;0.10;;;13.30;99.90;;;;;;5078924;28;20439;-87
2022/10/05 05:12:07;;;;;;;0.10;0.10;;;13.30;99.90;;;;;;5085188;28;20447;-85
2022/10/05 05:14:58;;;;;;;0.10;0.10;;;13.30;99.90;;;;;;5084943;28;20438;-83
2022/10/05 05:17:52;;;;;;;0.20;0.20;;;13.30;99.90;;;;;;5076449;28;20440;-85
2022/10/05 05:20:50;;;;;;;0.10;0.10;;;13.30;99.90;;;;;;5081079;28;20489;-85
2022/10/05 05:23:31;;;;;;;0.20;0.20;;;13.30;99.90;;;;;;5084486;28;20484;-85
2022/10/05 05:26:18;;;;;;;0.10;0.10;;;13.30;99.90;;;;;;5073021;28;20970;-86
2022/10/05 05:28:57;;;;;;;0.20;0.20;;;13.40;99.90;;;;;;5080721;28;20467;-83
2022/10/05 05:31:29;;;;;;;0.10;0.10;;;13.30;99.90;;;;;;5069832;28;20931;-84
2022/10/05 05:34:25;;;;;;;0.10;0.10;;;13.40;99.90;;;;;;5084392;28;21003;-83
2022/10/05 05:37:06;;;;;;;0.10;0.10;;;13.30;99.90;;;;;;5067642;28;20436;-82
2022/10/05 05:39:51;;;;;;;0.10;0.10;;;13.30;99.90;;;;;;5104811;28;21220;-83
2022/10/05 05:42:49;;;;;;;0.10;0.10;;;13.30;99.90;;;;;;5074972;28;20447;-83
2022/10/05 05:45:39;;;;;;;0.10;0.10;;;13.30;99.90;;;;;;5088987;28;20523;-82
2022/10/05 05:48:32;;;;;;;0.10;0.10;;;13.30;99.90;;;;;;5084458;28;20435;-82
2022/10/05 05:51:28;;;;;;;0.10;0.10;;;13.30;99.90;;;;;;5088414;28;20442;-85
2022/10/05 05:53:57;;;;;;;0.20;0.20;;;13.30;99.90;;;;;;5057370;28;20477;-84
2022/10/05 05:56:31;;;;;;;0.10;0.10;;;13.30;99.90;;;;;;5070175;28;20470;-83
2022/10/05 05:59:14;;;;;;;0.10;0.10;;;13.30;99.90;;;;;;5074243;28;20450;-82
2022/10/05 06:02:06;;;;;;;0.20;0.20;;;13.30;99.90;;;;;;5082862;28;20478;-81
2022/10/05 06:04:43;;;;;;;0.20;0.20;;;13.30;99.90;;;;;;5063580;28;20434;-84
2022/10/05 06:07:15;;;;;;;0.10;0.10;;;13.40;99.90;;;;;;5085806;28;20435;-82
2022/10/05 06:09:55;;;;;;;0.10;0.10;;;13.40;99.90;;;;;;5088615;28;20445;-84
2022/10/05 06:12:33;;;;;;;0.10;0.10;;;13.30;99.90;;;;;;5089993;28;20492;-83
2022/10/05 06:15:10;;;;;;;0.10;0.10;;;13.30;99.90;;;;;;5088090;28;20439;-83
2022/10/05 06:17:44;;;;;;;0.20;0.20;;;13.40;99.90;;;;;;5070672;28;20474;-84
2022/10/05 06:20:26;;;;;;;0.10;0.10;;;13.40;99.90;;;;;;5080272;28;20473;-82
2022/10/05 06:22:54;;;;;;;0.10;0.10;;;13.30;99.90;;;;;;5083960;28;21134;-81
2022/10/05 06:25:48;;;;;;;0.10;0.10;;;13.40;99.90;;;;;;5082573;28;20923;-82
2022/10/05 06:28:17;;;;;;;0.10;0.10;;;13.40;99.90;;;;;;5086296;28;20454;-84
2022/10/05 06:30:53;;;;;;;0.10;0.10;;;13.40;99.90;;;;;;5082716;28;20472;-83
2022/10/05 06:33:46;;;;;;;0.10;0.10;;;13.50;99.90;;;;;;5084761;28;20446;-85
2022/10/05 06:36:42;;;;;;;0.10;0.10;;;13.50;99.90;;;;;;5091034;28;20451;-86
2022/10/05 06:39:34;;;;;;;0.10;0.10;;;13.50;99.90;;;;;;5068171;28;21136;-84
2022/10/05 06:42:31;;;;;;;0.10;0.10;;;13.50;99.90;;;;;;5068499;28;20448;-85
2022/10/05 06:45:16;;;;;;;0.10;0.10;;;13.50;99.90;;;;;;5068333;28;20459;-82
2022/10/05 06:47:41;;;;;;;0.10;0.10;;;13.50;99.90;;;;;;5096460;28;20466;-82
2022/10/05 06:50:31;;;;;;;0.10;0.10;;;13.50;99.90;;;;;;5076314;28;20447;-83
2022/10/05 06:53:14;;;;;;;0.10;0.10;;;13.60;99.90;;;;;;5089247;28;20657;-83
2022/10/05 06:56:03;;;;;;;0.10;0.10;;;13.60;99.90;;;;;;5082053;28;20447;-83
2022/10/05 06:58:44;;;;;;;0.10;0.10;;;13.60;99.90;;;;;;5089242;28;20451;-83
2022/10/05 07:01:21;;;;;;;0.10;0.10;;;13.60;99.90;;;;;;5074046;28;20482;-83
2022/10/05 07:03:49;;;;;;;0.10;0.10;;;13.70;99.90;;;;;;5073539;28;20439;-83
2022/10/05 07:06:32;;;;;;;0.10;0.10;;;13.70;99.90;;;;;;5088002;28;20534;-81
2022/10/05 07:09:34;;;;;;;0.10;0.10;;;13.70;99.90;;;;;;5095844;28;20449;-82
2022/10/05 07:12:16;;;;;;;0.10;0.10;;;13.70;99.90;;;;;;5029536;28;20461;-83
2022/10/05 07:14:42;;;;;;;0.10;0.10;;;13.70;99.90;;;;;;5071295;28;21185;-82
2022/10/05 07:17:23;;;;;;;0.10;0.10;;;13.70;99.90;;;;;;5083477;28;20435;-83
2022/10/05 07:20:21;;;;;;;0.10;0.10;;;13.70;99.90;;;;;;5078392;28;20239;-83
2022/10/05 07:23:30;;;;;;;0.10;0.10;;;13.80;99.90;;;;;;5073608;28;20450;-82
2022/10/05 07:26:08;;;;;;;0.10;0.10;;;13.80;99.90;;;;;;5036617;28;20458;-83
2022/10/05 07:29:11;;;;;;;0.10;0.10;;;13.80;99.90;;;;;;5079986;28;20446;-82
2022/10/05 07:31:57;;;;;;;0.10;0.10;;;13.90;99.90;;;;;;5079815;28;21181;-83
2022/10/05 07:34:35;;;;;;;0.20;0.20;;;14.00;99.90;;;;;;5085292;28;20501;-82
2022/10/05 07:39:59;;;;;;;0.10;0.10;;;14.00;99.90;;;;;;5088295;28;20505;-83
2022/10/05 07:42:51;;;;;;;0.10;0.10;;;14.10;99.90;;;;;;5092335;28;20414;-83
2022/10/05 07:45:40;;;;;;;0.10;0.10;;;14.10;99.90;;;;;;5089544;28;20479;-83
2022/10/05 07:48:34;;;;;;;0.10;0.10;;;14.10;99.90;;;;;;5091539;28;20479;-83
2022/10/05 07:51:15;;;;;;;0.10;0.10;;;14.20;99.90;;;;;;5073885;28;20582;-83
2022/10/05 07:53:55;;;;;;;0.10;0.10;;;14.20;99.90;;;;;;5093632;28;20443;-81
2022/10/05 07:56:42;;;;;;;0.10;0.10;;;14.30;99.90;;;;;;5091640;28;20433;-83
2022/10/05 07:59:29;;;;;;;0.10;0.10;;;14.20;99.90;;;;;;5093210;28;20442;-82
2022/10/05 08:02:15;;;;;;;0.10;0.10;;;14.20;99.90;;;;;;5090873;28;20965;-81
2022/10/05 08:04:54;;;;;;;0.10;0.10;;;14.20;99.90;;;;;;5089564;28;20449;-84
2022/10/05 08:07:20;;;;;;;0.10;0.10;;;14.20;99.90;;;;;;5087965;28;20431;-81
2022/10/05 08:09:59;;;;;;;0.10;0.10;;;14.20;99.90;;;;;;5085362;28;20455;-81
2022/10/05 08:12:52;;;;;;;0.10;0.10;;;14.20;99.90;;;;;;5083894;28;20174;-83
2022/10/05 08:15:22;;;;;;;0.10;0.10;;;14.20;99.90;;;;;;5078428;28;20443;-85
2022/10/05 08:17:56;;;;;;;0.10;0.10;;;14.30;99.90;;;;;;5078618;28;20440;-82
2022/10/05 08:20:28;;;;;;;0.10;0.10;;;14.40;99.90;;;;;;5079517;28;20555;-81
2022/10/05 08:23:03;;;;;;;0.10;0.10;;;14.50;99.90;;;;;;5091513;28;20450;-81
2022/10/05 08:25:54;;;;;;;0.10;0.10;;;14.50;99.90;;;;;;5091482;28;20468;-83
2022/10/05 08:28:25;;;;;;;0.10;0.10;;;14.50;99.90;;;;;;5088325;28;20835;-83
2022/10/05 08:31:00;;;;;;;0.10;0.10;;;14.50;99.90;;;;;;5085459;28;20543;-82
2022/10/05 08:33:30;;;;;;;0.10;0.10;;;14.60;99.90;;;;;;5076007;28;21266;-83
2022/10/05 08:36:11;;;;;;;0.10;0.10;;;14.70;99.90;;;;;;5059540;28;20480;-83
2022/10/05 08:38:37;;;;;;;0.10;0.10;;;14.70;99.90;;;;;;5087161;28;20459;-81
2022/10/05 08:41:33;;;;;;;0.10;0.10;;;14.70;99.90;;;;;;5073459;28;20573;-82
2022/10/05 08:44:36;;;;;;;0.10;0.10;;;14.80;99.90;;;;;;5088556;28;20807;-84
2022/10/05 08:47:13;;;;;;;0.10;0.10;;;14.80;99.90;;;;;;5074330;28;20442;-84
2022/10/05 08:49:57;;;;;;;0.10;0.10;;;14.80;99.90;;;;;;5080571;28;20567;-82
2022/10/05 08:52:24;;;;;;;0.10;0.10;;;14.90;99.90;;;;;;5076318;28;20447;-83
2022/10/05 08:55:08;;;;;;;0.10;0.10;;;14.90;99.90;;;;;;5090681;28;20513;-82
2022/10/05 08:57:55;;;;;;;0.10;0.10;;;15.00;99.90;;;;;;5086691;28;20438;-80
2022/10/05 09:00:22;;;;;;;0.10;0.10;;;15.10;99.90;;;;;;5088295;28;21387;-83
2022/10/05 09:03:07;;;;;;;0.10;0.10;;;15.00;99.90;;;;;;5089959;28;20911;-82
2022/10/05 09:06:05;;;;;;;0.10;0.10;;;15.10;99.90;;;;;;5093180;28;20446;-82
2022/10/05 09:09:05;;;;;;;0.10;0.10;;;15.20;99.90;;;;;;5082726;28;20431;-85
2022/10/05 09:11:44;;;;;;;0.10;0.10;;;15.20;99.90;;;;;;5073812;28;20443;-83
2022/10/05 09:14:21;;;;;;;0.10;0.10;;;15.20;99.90;;;;;;5073661;28;20438;-83
2022/10/05 09:16:58;;;;;;;0.10;0.10;;;15.20;99.90;;;;;;5084204;28;20950;-83
2022/10/05 09:19:27;;;;;;;0.10;0.10;;;15.30;99.90;;;;;;5088175;28;20489;-83
2022/10/05 09:22:05;;;;;;;0.10;0.10;;;15.30;99.90;;;;;;5082124;28;20803;-83
2022/10/05 09:24:53;;;;;;;0.10;0.10;;;15.30;99.90;;;;;;5088901;28;20446;-83
2022/10/05 09:27:50;;;;;;;0.10;0.10;;;15.30;99.90;;;;;;5086494;28;20450;-82
2022/10/05 09:30:22;;;;;;;0.10;0.10;;;15.40;99.90;;;;;;5078831;28;20938;-82
2022/10/05 09:33:20;;;;;;;0.10;0.10;;;15.30;99.90;;;;;;5070842;28;20819;-83
2022/10/05 09:36:20;;;;;;;0.10;0.10;;;15.30;99.90;;;;;;5060952;28;20435;-83
2022/10/05 09:39:16;;;;;;;0.10;0.10;;;15.30;99.90;;;;;;5080423;28;20454;-84
2022/10/05 09:42:12;;;;;;;0.10;0.10;;;15.30;99.90;;;;;;5087044;28;20481;-83
2022/10/05 09:45:06;;;;;;;0.10;0.10;;;15.30;99.90;;;;;;5095646;28;20446;-83
2022/10/05 09:48:05;;;;;;;0.10;0.10;;;15.20;99.90;;;;;;5080826;28;20488;-84
2022/10/05 09:50:37;;;;;;;0.10;0.10;;;15.20;99.90;;;;;;5082208;28;20954;-82
2022/10/05 09:53:39;;;;;;;0.10;0.10;;;15.20;99.90;;;;;;5071510;28;20439;-83
2022/10/05 09:56:38;;;;;;;0.10;0.10;;;15.20;99.90;;;;;;5081513;28;20477;-84
2022/10/05 09:59:37;;;;;;;0.10;0.10;;;15.30;99.90;;;;;;5090751;28;20438;-83
2022/10/05 10:02:08;;;;;;;0.10;0.10;;;15.30;99.90;;;;;;5097991;28;20449;-82
2022/10/05 10:05:33;;;;;;;0.10;0.10;;;15.30;99.90;;;;;;5074346;28;20442;-81
2022/10/05 10:08:33;;;;;;;0.10;0.10;;;15.30;99.90;;;;;;4990413;28;20435;-82
2022/10/05 10:11:14;;;;;;;0.10;0.10;;;15.40;99.90;;;;;;5095068;28;20531;-83
2022/10/05 10:13:55;;;;;;;0.10;0.10;;;15.30;99.90;;;;;;5090584;28;20442;-84
2022/10/05 10:16:52;;;;;;;0.10;0.10;;;15.40;99.90;;;;;;5094021;28;21133;-83
2022/10/05 10:19:33;;;;;;;0.10;0.10;;;15.50;99.90;;;;;;5073563;28;20864;-83
2022/10/05 10:22:18;;;;;;;0.10;0.10;;;15.50;99.90;;;;;;5096980;27;20453;-79
2022/10/05 10:25:02;;;;;;;0.10;0.10;;;15.60;99.90;;;;;;5073143;28;20446;-82
2022/10/05 10:28:05;;;;;;;0.10;0.10;;;15.70;99.90;;;;;;5074931;28;20454;-78
2022/10/05 10:30:40;;;;;;;0.10;0.10;;;15.60;99.90;;;;;;5090115;28;20453;-80
2022/10/05 10:33:33;;;;;;;0.10;0.10;;;15.70;99.90;;;;;;5093591;28;20518;-80
2022/10/05 10:36:05;;;;;;;0.10;0.10;;;15.80;99.90;;;;;;5078000;28;20451;-80
2022/10/05 10:39:01;;;;;;;0.10;0.10;;;15.80;99.90;;;;;;5092779;28;20484;-79
2022/10/05 10:41:50;;;;;;;0.10;0.10;;;15.80;99.90;;;;;;5055990;28;20486;-81
2022/10/05 10:44:46;;;;;;;0.10;0.10;;;15.90;99.90;;;;;;5055198;28;20460;-83
2022/10/05 10:47:36;;;;;;;0.10;0.10;;;16.10;99.90;;;;;;5058722;28;20463;-83
2022/10/05 10:50:27;;;;;;;0.10;0.10;;;16.10;99.90;;;;;;5091664;28;20531;-82
2022/10/05 10:53:26;;;;;;;0.10;0.10;;;16.10;99.90;;;;;;5079533;28;20462;-81
2022/10/05 10:56:29;;;;;;;0.10;0.10;;;16.10;99.90;;;;;;5087676;28;20459;-82
2022/10/05 10:59:11;;;;;;;0.10;0.10;;;16.20;99.90;;;;;;5081401;28;20529;-82
2022/10/05 11:01:54;;;;;;;0.10;0.10;;;16.30;99.90;;;;;;5082574;28;20483;-81
2022/10/05 11:04:30;;;;;;;0.10;0.10;;;16.40;99.90;;;;;;5089092;28;20487;-82
2022/10/05 11:07:21;;;;;;;0.10;0.10;;;16.40;99.90;;;;;;5073815;28;20457;-81
2022/10/05 11:10:08;;;;;;;0.10;0.10;;;16.50;99.90;;;;;;5078063;28;20458;-83
2022/10/05 11:12:48;;;;;;;0.10;0.10;;;16.40;99.90;;;;;;5085495;28;20431;-81
2022/10/05 11:15:36;;;;;;;0.10;0.10;;;16.30;99.90;;;;;;5086057;28;20453;-79
2022/10/05 11:18:21;;;;;;;0.10;0.10;;;16.30;99.90;;;;;;5088019;28;20558;-80
2022/10/05 11:20:50;;;;;;;0.10;0.10;;;16.10;99.90;;;;;;5076368;28;20860;-81
2022/10/05 11:23:46;;;;;;;0.10;0.10;;;16.10;99.90;;;;;;5083138;28;20438;-81
2022/10/05 11:26:31;;;;;;;0.10;0.10;;;16.00;99.90;;;;;;5053968;28;20813;-81
2022/10/05 11:29:27;;;;;;;0.10;0.10;;;16.00;99.90;;;;;;5083711;28;20537;-83
2022/10/05 11:32:26;;;;;;;0.10;0.10;;;16.00;99.90;;;;;;5088855;28;20454;-82
2022/10/05 11:35:35;;;;;;;0.10;0.10;;;16.10;99.90;;;;;;5089178;28;20451;-83
2022/10/05 11:38:06;;;;;;;0.10;0.10;;;16.20;99.90;;;;;;5008790;28;21009;-81
2022/10/05 11:40:42;;;;;;;0.10;0.10;;;16.10;99.90;;;;;;5083992;28;20582;-81
2022/10/05 11:43:22;;;;;;;0.10;0.10;;;16.10;99.90;;;;;;5092835;28;20465;-80
2022/10/05 11:45:56;;;;;;;0.10;0.10;;;16.10;99.90;;;;;;5088693;28;20443;-79
2022/10/05 11:48:34;;;;;;;0.10;0.10;;;16.00;99.90;;;;;;5094117;28;20433;-78
2022/10/05 11:51:27;;;;;;;0.10;0.10;;;16.00;99.90;;;;;;5063567;28;20439;-80
2022/10/05 11:54:02;;;;;;;0.10;0.10;;;15.90;99.90;;;;;;5075606;28;20427;-79
2022/10/05 11:56:45;;;;;;;0.10;0.10;;;16.00;99.90;;;;;;5095501;28;20439;-79
2022/10/05 11:59:33;;;;;;;0.10;0.10;;;16.00;99.90;;;;;;5082185;28;20531;-79
2022/10/05 12:02:29;;;;;;;0.10;0.10;;;16.00;99.90;;;;;;5081823;28;20446;-79
2022/10/05 12:05:20;;;;;;;0.10;0.10;;;16.00;99.90;;;;;;5071865;28;20444;-80
2022/10/05 12:08:06;;;;;;;0.10;0.10;;;16.00;99.90;;;;;;5072159;28;20442;-80
2022/10/05 12:10:50;;;;;;;0.10;0.10;;;15.90;99.90;;;;;;5072131;28;20538;-79
2022/10/05 12:13:43;;;;;;;0.10;0.10;;;15.90;99.90;;;;;;5090076;28;20431;-80
2022/10/05 12:16:34;;;;;;;0.10;0.10;;;15.90;99.90;;;;;;5085298;28;20944;-79
2022/10/05 12:19:17;;;;;;;0.10;0.10;;;16.00;99.90;;;;;;5091407;28;20438;-80
2022/10/05 12:21:47;;;;;;;0.10;0.10;;;16.00;99.90;;;;;;5077923;28;20867;-80
2022/10/05 12:24:41;;;;;;;0.10;0.10;;;15.90;99.90;;;;;;5080743;28;20459;-79
2022/10/05 12:27:16;;;;;;;0.10;0.10;;;15.90;99.90;;;;;;5069192;28;20989;-79
2022/10/05 12:30:13;;;;;;;0.10;0.10;;;15.90;99.90;;;;;;5072956;28;20452;-81
2022/10/05 12:32:52;;;;;;;0.10;0.10;;;16.00;99.90;;;;;;5057622;28;20791;-81
2022/10/05 12:35:31;;;;;;;0.10;0.10;;;16.10;99.90;;;;;;5080291;28;20450;-81
2022/10/05 12:38:06;;;;;;;0.10;0.10;;;16.10;99.90;;;;;;5084614;28;21177;-80
2022/10/05 12:40:44;;;;;;;0.10;0.10;;;16.00;99.90;;;;;;5082406;28;21216;-79
2022/10/05 12:43:42;;;;;;;0.10;0.10;;;16.00;99.90;;;;;;5083914;28;20995;-78
2022/10/05 12:46:10;;;;;;;0.10;0.10;;;16.00;99.90;;;;;;5078190;28;20499;-79
2022/10/05 12:48:47;;;;;;;0.10;0.10;;;16.00;99.90;;;;;;5091100;28;20516;-81
2022/10/05 12:51:13;;;;;;;0.10;0.10;;;15.90;99.90;;;;;;5082285;28;20471;-81
2022/10/05 12:54:05;;;;;;;0.10;0.10;;;15.90;99.90;;;;;;5080854;28;20950;-82
2022/10/05 12:56:53;;;;;;;0.10;0.10;;;15.80;99.90;;;;;;5080111;28;22027;-77
2022/10/05 12:59:29;;;;;;;0.10;0.10;;;15.70;99.90;;;;;;5088826;28;20833;-80
2022/10/05 13:02:10;;;;;;;0.10;0.10;;;15.70;99.90;;;;;;5090741;28;20551;-79
2022/10/05 13:04:40;;;;;;;0.10;0.10;;;15.70;99.90;;;;;;5086902;28;21082;-81
2022/10/05 13:07:42;;;;;;;0.10;0.10;;;15.70;99.90;;;;;;5089771;28;20452;-77
2022/10/05 13:10:27;;;;;;;0.10;0.10;;;15.60;99.90;;;;;;5070837;28;20447;-79
2022/10/05 13:13:11;;;;;;;0.10;0.10;;;15.70;99.90;;;;;;5071090;28;20451;-82
2022/10/05 13:15:51;;;;;;;0.10;0.10;;;15.60;99.90;;;;;;5075507;28;20790;-79
2022/10/05 13:18:22;;;;;;;0.10;0.10;;;15.60;99.90;;;;;;5076137;28;20450;-80
2022/10/05 13:21:18;;;;;;;0.10;0.10;;;15.60;99.90;;;;;;5087256;28;21001;-80
2022/10/05 13:24:00;;;;;;;0.10;0.10;;;15.60;99.90;;;;;;5073480;28;20438;-80
2022/10/05 13:26:31;;;;;;;0.10;0.10;;;15.50;99.90;;;;;;5082924;28;21444;-80
2022/10/05 13:28:59;;;;;;;0.10;0.10;;;15.50;99.90;;;;;;5088068;28;20471;-80
2022/10/05 13:31:39;;;;;;;0.10;0.10;;;15.50;99.90;;;;;;5084785;28;20528;-80
2022/10/05 13:34:42;;;;;;;0.10;0.10;;;15.50;99.90;;;;;;5072524;28;20503;-81
2022/10/05 13:37:24;;;;;;;0.10;0.10;;;15.50;99.90;;;;;;5069717;28;20442;-80
2022/10/05 13:40:09;;;;;;;0.10;0.10;;;15.50;99.90;;;;;;5091526;28;20996;-79
2022/10/05 13:43:08;;;;;;;0.10;0.10;;;15.50;99.90;;;;;;5086720;28;20607;-80
2022/10/05 13:45:51;;;;;;;0.10;0.10;;;15.60;99.90;;;;;;5070787;28;20448;-80
2022/10/05 13:48:38;;;;;;;0.10;0.10;;;15.50;99.90;;;;;;5092607;28;22184;-80
2022/10/05 13:51:04;;;;;;;0.10;0.10;;;15.50;99.90;;;;;;5075945;28;20439;-80
2022/10/05 13:53:46;;;;;;;0.10;0.10;;;15.50;99.90;;;;;;5085112;28;20439;-79
2022/10/05 13:56:36;;;;;;;0.10;0.10;;;15.40;99.90;;;;;;5074779;28;20243;-80
2022/10/05 13:59:22;;;;;;;0.10;0.10;;;15.50;99.90;;;;;;5076413;28;20870;-80
2022/10/05 14:02:23;;;;;;;0.10;0.10;;;15.50;99.90;;;;;;5083620;28;20518;-81
2022/10/05 14:05:22;;;;;;;0.10;0.10;;;15.40;99.90;;;;;;5068437;28;20449;-81
2022/10/05 14:08:14;;;;;;;0.10;0.10;;;15.40;99.90;;;;;;5087616;28;20453;-79
2022/10/05 14:10:42;;;;;;;0.10;0.10;;;15.40;99.90;;;;;;5092621;28;22058;-80
2022/10/05 14:13:31;;;;;;;0.10;0.10;;;15.40;99.90;;;;;;5085452;28;21221;-80